Back to top

Big Piney, WY weather

Big Piney-Marbleton Airport (AMOS), Big Piney, WY: 6/27/2022 20:53
Visibility10 statute milesclear sky
View 7-Day Forecast
Area Summary
Sky/CloudsSky Clear
Weather [last 24 hours]None
Pressure30.38 in.Hg (1029 hPa)
3-hour Pressure Tendency0.01181 in.Hg (0.4 hPa) Decreasing or steady, then increasing; or increasing then increasing more rapidly
Dew Point35.1 °F (1.7 °C)
Relative Humidity31.7 %
Temperature66 °F (18.9 °C)red thermometer
Reading TimeMinimum to Maximum Temperature
6-hr ending 6/27@17:5373 °F to 84 °F (22.8 °C to 28.9 °C)
6-hr ending 6/27@11:5339.9 °F to 75 °F (4.4 °C to 23.9 °C)
6-hr ending 6/27@05:5337.9 °F to 53.1 °F (3.3 °C to 11.7 °C)
6-hr ending 6/26@23:5350 °F to 78.1 °F (10 °C to 25.6 °C)
24-hr ending 6/27@00:5337.9 °F to 78.1 °F (3.3 °C to 25.6 °C)
Wind8.06 MPH (7 KT) green arrow pointing 337.5 degrees
Wind FromNorth/Northwest (340 Degrees)
Rolling 24-hr Peak Wind34.5 MPH (30 KT) on 6/27@17:36
Rolling 24-hr Peak Wind FromNorthwest (310 Degrees)
Twilight Begins05:11Sunshine Yesterday
Sunrise05:46N/A
Sunset21:01
Twilight Ends21:36
METARKBPI 280253Z AUTO 34007KT 10SM CLR 19/02 A3038 RMK AO2 SLP196 T01890017 53004
Tags: